sensor_id;sensor_type;location;lat;lon;timestamp;P1;durP1;ratioP1;P2;durP2;ratioP2
15216;SDS011;7711;46.634;14.318;2022-07-03T00:00:00;3.45;;;2.70;;
15216;SDS011;7711;46.634;14.318;2022-07-03T00:02:29;2.95;;;2.55;;
15216;SDS011;7711;46.634;14.318;2022-07-03T00:04:56;5.22;;;2.95;;
15216;SDS011;7711;46.634;14.318;2022-07-03T00:07:24;2.90;;;2.60;;
15216;SDS011;7711;46.634;14.318;2022-07-03T00:09:53;3.63;;;2.85;;
15216;SDS011;7711;46.634;14.318;2022-07-03T00:12:20;3.60;;;2.83;;
15216;SDS011;7711;46.634;14.318;2022-07-03T00:14:47;4.30;;;3.08;;
15216;SDS011;7711;46.634;14.318;2022-07-03T00:17:16;3.88;;;2.92;;
15216;SDS011;7711;46.634;14.318;2022-07-03T00:19:43;5.90;;;3.05;;
15216;SDS011;7711;46.634;14.318;2022-07-03T00:22:11;3.40;;;2.95;;
15216;SDS011;7711;46.634;14.318;2022-07-03T00:24:40;3.95;;;3.00;;
15216;SDS011;7711;46.634;14.318;2022-07-03T00:27:11;5.68;;;3.10;;
15216;SDS011;7711;46.634;14.318;2022-07-03T00:29:44;6.75;;;3.08;;
15216;SDS011;7711;46.634;14.318;2022-07-03T00:32:12;4.97;;;3.08;;
15216;SDS011;7711;46.634;14.318;2022-07-03T00:34:44;3.55;;;2.70;;
15216;SDS011;7711;46.634;14.318;2022-07-03T00:37:15;3.15;;;2.80;;
15216;SDS011;7711;46.634;14.318;2022-07-03T00:39:43;3.22;;;2.83;;
15216;SDS011;7711;46.634;14.318;2022-07-03T00:42:12;4.68;;;3.05;;
15216;SDS011;7711;46.634;14.318;2022-07-03T00:44:44;3.30;;;3.00;;
15216;SDS011;7711;46.634;14.318;2022-07-03T00:47:13;5.05;;;3.20;;
15216;SDS011;7711;46.634;14.318;2022-07-03T00:49:43;5.35;;;3.10;;
15216;SDS011;7711;46.634;14.318;2022-07-03T00:52:14;3.90;;;3.40;;
15216;SDS011;7711;46.634;14.318;2022-07-03T00:54:43;3.78;;;3.20;;
15216;SDS011;7711;46.634;14.318;2022-07-03T00:57:14;5.35;;;3.30;;
15216;SDS011;7711;46.634;14.318;2022-07-03T00:59:42;3.75;;;3.30;;
15216;SDS011;7711;46.634;14.318;2022-07-03T01:02:12;3.30;;;3.00;;
15216;SDS011;7711;46.634;14.318;2022-07-03T01:04:51;5.20;;;3.00;;
15216;SDS011;7711;46.634;14.318;2022-07-03T01:07:25;3.53;;;3.03;;
15216;SDS011;7711;46.634;14.318;2022-07-03T01:10:03;3.88;;;3.20;;
15216;SDS011;7711;46.634;14.318;2022-07-03T01:12:42;5.38;;;3.30;;
15216;SDS011;7711;46.634;14.318;2022-07-03T01:15:20;6.38;;;3.50;;
15216;SDS011;7711;46.634;14.318;2022-07-03T01:18:03;4.43;;;3.17;;
15216;SDS011;7711;46.634;14.318;2022-07-03T01:20:44;4.20;;;3.50;;
15216;SDS011;7711;46.634;14.318;2022-07-03T01:23:20;4.38;;;3.30;;
15216;SDS011;7711;46.634;14.318;2022-07-03T01:25:58;4.20;;;3.75;;
15216;SDS011;7711;46.634;14.318;2022-07-03T01:28:33;6.35;;;3.67;;
15216;SDS011;7711;46.634;14.318;2022-07-03T01:31:09;3.60;;;3.25;;
15216;SDS011;7711;46.634;14.318;2022-07-03T01:33:43;4.53;;;3.60;;
15216;SDS011;7711;46.634;14.318;2022-07-03T01:36:13;3.67;;;3.38;;
15216;SDS011;7711;46.634;14.318;2022-07-03T01:38:44;5.72;;;3.47;;
15216;SDS011;7711;46.634;14.318;2022-07-03T01:41:14;4.63;;;3.72;;
15216;SDS011;7711;46.634;14.318;2022-07-03T01:43:44;4.70;;;3.50;;
15216;SDS011;7711;46.634;14.318;2022-07-03T01:46:13;4.65;;;3.53;;
15216;SDS011;7711;46.634;14.318;2022-07-03T01:48:43;4.63;;;4.03;;
15216;SDS011;7711;46.634;14.318;2022-07-03T01:51:13;4.47;;;3.80;;
15216;SDS011;7711;46.634;14.318;2022-07-03T01:53:43;5.75;;;4.00;;
15216;SDS011;7711;46.634;14.318;2022-07-03T01:56:14;5.30;;;3.70;;
15216;SDS011;7711;46.634;14.318;2022-07-03T01:58:44;4.35;;;3.67;;
15216;SDS011;7711;46.634;14.318;2022-07-03T02:01:16;5.80;;;3.85;;
15216;SDS011;7711;46.634;14.318;2022-07-03T02:03:55;5.47;;;3.60;;
15216;SDS011;7711;46.634;14.318;2022-07-03T02:06:32;3.92;;;3.63;;
15216;SDS011;7711;46.634;14.318;2022-07-03T02:09:07;4.68;;;3.50;;
15216;SDS011;7711;46.634;14.318;2022-07-03T02:11:38;3.95;;;3.55;;
15216;SDS011;7711;46.634;14.318;2022-07-03T02:14:13;4.13;;;3.72;;
15216;SDS011;7711;46.634;14.318;2022-07-03T02:16:49;5.18;;;3.90;;
15216;SDS011;7711;46.634;14.318;2022-07-03T02:19:21;6.57;;;4.10;;
15216;SDS011;7711;46.634;14.318;2022-07-03T02:21:57;5.28;;;4.13;;
15216;SDS011;7711;46.634;14.318;2022-07-03T02:24:25;7.97;;;4.15;;
15216;SDS011;7711;46.634;14.318;2022-07-03T02:26:56;6.00;;;3.80;;
15216;SDS011;7711;46.634;14.318;2022-07-03T02:29:30;4.38;;;3.97;;
15216;SDS011;7711;46.634;14.318;2022-07-03T02:32:00;5.25;;;4.07;;
15216;SDS011;7711;46.634;14.318;2022-07-03T02:34:30;5.47;;;4.13;;
15216;SDS011;7711;46.634;14.318;2022-07-03T02:37:04;4.70;;;4.20;;
15216;SDS011;7711;46.634;14.318;2022-07-03T02:39:39;5.50;;;4.18;;
15216;SDS011;7711;46.634;14.318;2022-07-03T02:42:14;5.03;;;4.25;;
15216;SDS011;7711;46.634;14.318;2022-07-03T02:44:52;6.40;;;4.45;;
15216;SDS011;7711;46.634;14.318;2022-07-03T02:47:23;4.82;;;3.97;;
15216;SDS011;7711;46.634;14.318;2022-07-03T02:50:00;6.43;;;4.75;;
15216;SDS011;7711;46.634;14.318;2022-07-03T02:52:39;5.43;;;4.40;;
15216;SDS011;7711;46.634;14.318;2022-07-03T02:55:17;4.82;;;4.32;;
15216;SDS011;7711;46.634;14.318;2022-07-03T02:58:16;9.48;;;4.72;;
15216;SDS011;7711;46.634;14.318;2022-07-03T03:01:09;10.43;;;4.65;;
15216;SDS011;7711;46.634;14.318;2022-07-03T03:03:44;8.30;;;5.10;;
15216;SDS011;7711;46.634;14.318;2022-07-03T03:06:18;7.10;;;4.32;;
15216;SDS011;7711;46.634;14.318;2022-07-03T03:08:48;9.05;;;4.70;;
15216;SDS011;7711;46.634;14.318;2022-07-03T03:11:21;10.68;;;4.90;;
15216;SDS011;7711;46.634;14.318;2022-07-03T03:13:54;5.15;;;4.63;;
15216;SDS011;7711;46.634;14.318;2022-07-03T03:16:22;6.40;;;5.32;;
15216;SDS011;7711;46.634;14.318;2022-07-03T03:18:50;9.05;;;4.75;;
15216;SDS011;7711;46.634;14.318;2022-07-03T03:21:19;8.48;;;5.30;;
15216;SDS011;7711;46.634;14.318;2022-07-03T03:23:49;6.10;;;5.03;;
15216;SDS011;7711;46.634;14.318;2022-07-03T03:26:18;8.18;;;4.82;;
15216;SDS011;7711;46.634;14.318;2022-07-03T03:28:45;7.53;;;4.63;;
15216;SDS011;7711;46.634;14.318;2022-07-03T03:31:14;5.45;;;4.85;;
15216;SDS011;7711;46.634;14.318;2022-07-03T03:33:44;6.10;;;4.97;;
15216;SDS011;7711;46.634;14.318;2022-07-03T03:36:13;7.68;;;5.20;;
15216;SDS011;7711;46.634;14.318;2022-07-03T03:38:42;8.40;;;5.10;;
15216;SDS011;7711;46.634;14.318;2022-07-03T03:41:09;6.43;;;5.28;;
15216;SDS011;7711;46.634;14.318;2022-07-03T03:43:41;8.00;;;5.68;;
15216;SDS011;7711;46.634;14.318;2022-07-03T03:46:08;6.25;;;5.43;;
15216;SDS011;7711;46.634;14.318;2022-07-03T03:48:37;9.20;;;5.78;;
15216;SDS011;7711;46.634;14.318;2022-07-03T03:51:04;6.60;;;4.97;;
15216;SDS011;7711;46.634;14.318;2022-07-03T03:53:32;7.55;;;5.80;;
15216;SDS011;7711;46.634;14.318;2022-07-03T03:56:00;7.00;;;5.22;;
15216;SDS011;7711;46.634;14.318;2022-07-03T03:58:30;12.20;;;6.10;;
15216;SDS011;7711;46.634;14.318;2022-07-03T04:01:03;11.20;;;5.70;;
15216;SDS011;7711;46.634;14.318;2022-07-03T04:03:33;7.72;;;5.63;;
15216;SDS011;7711;46.634;14.318;2022-07-03T04:06:02;6.20;;;5.53;;
15216;SDS011;7711;46.634;14.318;2022-07-03T04:08:30;9.80;;;5.72;;
15216;SDS011;7711;46.634;14.318;2022-07-03T04:11:00;6.38;;;5.78;;
15216;SDS011;7711;46.634;14.318;2022-07-03T04:13:28;8.27;;;5.40;;
15216;SDS011;7711;46.634;14.318;2022-07-03T04:15:55;5.70;;;5.15;;
15216;SDS011;7711;46.634;14.318;2022-07-03T04:18:22;9.23;;;5.32;;
15216;SDS011;7711;46.634;14.318;2022-07-03T04:20:50;8.43;;;5.70;;
15216;SDS011;7711;46.634;14.318;2022-07-03T04:23:18;6.88;;;5.57;;
15216;SDS011;7711;46.634;14.318;2022-07-03T04:25:46;5.78;;;5.03;;
15216;SDS011;7711;46.634;14.318;2022-07-03T04:28:13;6.40;;;5.20;;
15216;SDS011;7711;46.634;14.318;2022-07-03T04:30:41;8.52;;;4.88;;
15216;SDS011;7711;46.634;14.318;2022-07-03T04:33:08;6.80;;;5.20;;
15216;SDS011;7711;46.634;14.318;2022-07-03T04:35:37;7.72;;;4.93;;
15216;SDS011;7711;46.634;14.318;2022-07-03T04:38:06;8.13;;;4.80;;
15216;SDS011;7711;46.634;14.318;2022-07-03T04:40:39;7.57;;;4.88;;
15216;SDS011;7711;46.634;14.318;2022-07-03T04:43:06;6.72;;;4.85;;
15216;SDS011;7711;46.634;14.318;2022-07-03T04:45:33;6.55;;;4.88;;
15216;SDS011;7711;46.634;14.318;2022-07-03T04:48:00;7.32;;;4.40;;
15216;SDS011;7711;46.634;14.318;2022-07-03T04:50:28;6.80;;;4.53;;
15216;SDS011;7711;46.634;14.318;2022-07-03T04:52:55;5.20;;;4.32;;
15216;SDS011;7711;46.634;14.318;2022-07-03T04:55:22;5.60;;;4.57;;
15216;SDS011;7711;46.634;14.318;2022-07-03T04:57:51;7.35;;;4.20;;
15216;SDS011;7711;46.634;14.318;2022-07-03T05:00:20;5.38;;;4.53;;
15216;SDS011;7711;46.634;14.318;2022-07-03T05:02:47;7.03;;;4.20;;
15216;SDS011;7711;46.634;14.318;2022-07-03T05:05:14;4.90;;;4.20;;
15216;SDS011;7711;46.634;14.318;2022-07-03T05:07:41;5.00;;;4.40;;
15216;SDS011;7711;46.634;14.318;2022-07-03T05:10:09;9.10;;;4.38;;
15216;SDS011;7711;46.634;14.318;2022-07-03T05:12:41;6.22;;;4.10;;
15216;SDS011;7711;46.634;14.318;2022-07-03T05:15:10;4.93;;;4.43;;
15216;SDS011;7711;46.634;14.318;2022-07-03T05:17:37;5.03;;;4.55;;
15216;SDS011;7711;46.634;14.318;2022-07-03T05:20:05;5.38;;;4.88;;
15216;SDS011;7711;46.634;14.318;2022-07-03T05:22:53;6.97;;;4.50;;
15216;SDS011;7711;46.634;14.318;2022-07-03T05:25:24;7.88;;;4.63;;
15216;SDS011;7711;46.634;14.318;2022-07-03T05:27:52;6.55;;;4.38;;
15216;SDS011;7711;46.634;14.318;2022-07-03T05:30:21;5.07;;;4.53;;
15216;SDS011;7711;46.634;14.318;2022-07-03T05:32:50;8.15;;;4.43;;
15216;SDS011;7711;46.634;14.318;2022-07-03T05:35:17;4.20;;;3.80;;
15216;SDS011;7711;46.634;14.318;2022-07-03T05:37:45;7.07;;;4.18;;
15216;SDS011;7711;46.634;14.318;2022-07-03T05:40:12;6.05;;;4.57;;
15216;SDS011;7711;46.634;14.318;2022-07-03T05:42:42;5.05;;;4.35;;
15216;SDS011;7711;46.634;14.318;2022-07-03T05:45:11;5.88;;;4.97;;
15216;SDS011;7711;46.634;14.318;2022-07-03T05:47:40;6.70;;;4.75;;
15216;SDS011;7711;46.634;14.318;2022-07-03T05:50:08;5.32;;;4.63;;
15216;SDS011;7711;46.634;14.318;2022-07-03T05:52:36;4.70;;;4.30;;
15216;SDS011;7711;46.634;14.318;2022-07-03T05:55:03;7.13;;;4.68;;
15216;SDS011;7711;46.634;14.318;2022-07-03T05:57:31;6.07;;;4.80;;
15216;SDS011;7711;46.634;14.318;2022-07-03T05:59:58;6.78;;;4.60;;
15216;SDS011;7711;46.634;14.318;2022-07-03T06:02:27;5.50;;;5.00;;
15216;SDS011;7711;46.634;14.318;2022-07-03T06:04:58;5.43;;;4.28;;
15216;SDS011;7711;46.634;14.318;2022-07-03T06:07:25;6.55;;;4.85;;
15216;SDS011;7711;46.634;14.318;2022-07-03T06:09:52;5.65;;;4.57;;
15216;SDS011;7711;46.634;14.318;2022-07-03T06:12:22;5.25;;;4.78;;
15216;SDS011;7711;46.634;14.318;2022-07-03T06:14:55;7.18;;;4.47;;
15216;SDS011;7711;46.634;14.318;2022-07-03T06:17:22;9.40;;;4.78;;
15216;SDS011;7711;46.634;14.318;2022-07-03T06:19:49;5.68;;;4.53;;
15216;SDS011;7711;46.634;14.318;2022-07-03T06:22:18;6.82;;;4.57;;
15216;SDS011;7711;46.634;14.318;2022-07-03T06:24:45;6.18;;;4.40;;
15216;SDS011;7711;46.634;14.318;2022-07-03T06:27:12;5.00;;;4.30;;
15216;SDS011;7711;46.634;14.318;2022-07-03T06:29:39;5.10;;;4.60;;
15216;SDS011;7711;46.634;14.318;2022-07-03T06:32:07;4.45;;;4.10;;
15216;SDS011;7711;46.634;14.318;2022-07-03T06:34:34;7.13;;;4.15;;
15216;SDS011;7711;46.634;14.318;2022-07-03T06:37:01;10.07;;;4.45;;
15216;SDS011;7711;46.634;14.318;2022-07-03T06:39:30;5.82;;;3.97;;
15216;SDS011;7711;46.634;14.318;2022-07-03T06:41:57;6.45;;;4.07;;
15216;SDS011;7711;46.634;14.318;2022-07-03T06:44:24;5.63;;;4.00;;
15216;SDS011;7711;46.634;14.318;2022-07-03T06:46:52;5.93;;;4.28;;
15216;SDS011;7711;46.634;14.318;2022-07-03T06:49:23;5.65;;;4.35;;
15216;SDS011;7711;46.634;14.318;2022-07-03T06:51:52;5.38;;;4.10;;
15216;SDS011;7711;46.634;14.318;2022-07-03T06:54:19;5.22;;;4.10;;
15216;SDS011;7711;46.634;14.318;2022-07-03T06:56:48;4.60;;;4.20;;
15216;SDS011;7711;46.634;14.318;2022-07-03T06:59:18;5.50;;;3.90;;
15216;SDS011;7711;46.634;14.318;2022-07-03T07:01:48;6.03;;;3.72;;
15216;SDS011;7711;46.634;14.318;2022-07-03T07:04:16;4.07;;;3.30;;
15216;SDS011;7711;46.634;14.318;2022-07-03T07:06:45;5.30;;;3.40;;
15216;SDS011;7711;46.634;14.318;2022-07-03T07:09:12;6.97;;;3.78;;
15216;SDS011;7711;46.634;14.318;2022-07-03T07:11:39;6.95;;;3.83;;
15216;SDS011;7711;46.634;14.318;2022-07-03T07:14:08;5.25;;;3.30;;
15216;SDS011;7711;46.634;14.318;2022-07-03T07:16:35;4.40;;;3.70;;
15216;SDS011;7711;46.634;14.318;2022-07-03T07:19:05;4.72;;;3.90;;
15216;SDS011;7711;46.634;14.318;2022-07-03T07:21:32;6.05;;;3.67;;
15216;SDS011;7711;46.634;14.318;2022-07-03T07:23:59;4.25;;;3.85;;
15216;SDS011;7711;46.634;14.318;2022-07-03T07:26:31;6.05;;;3.45;;
15216;SDS011;7711;46.634;14.318;2022-07-03T07:29:02;7.30;;;3.80;;
15216;SDS011;7711;46.634;14.318;2022-07-03T07:31:30;3.70;;;3.40;;
15216;SDS011;7711;46.634;14.318;2022-07-03T07:33:58;4.03;;;3.63;;
15216;SDS011;7711;46.634;14.318;2022-07-03T07:36:25;4.03;;;3.63;;
15216;SDS011;7711;46.634;14.318;2022-07-03T07:38:55;6.50;;;3.80;;
15216;SDS011;7711;46.634;14.318;2022-07-03T07:41:22;4.50;;;4.10;;
15216;SDS011;7711;46.634;14.318;2022-07-03T07:43:52;4.80;;;4.00;;
15216;SDS011;7711;46.634;14.318;2022-07-03T07:46:20;4.72;;;3.65;;
15216;SDS011;7711;46.634;14.318;2022-07-03T07:48:48;3.95;;;3.65;;
15216;SDS011;7711;46.634;14.318;2022-07-03T07:51:16;5.57;;;3.90;;
15216;SDS011;7711;46.634;14.318;2022-07-03T07:53:46;5.82;;;3.60;;
15216;SDS011;7711;46.634;14.318;2022-07-03T07:56:14;4.72;;;3.50;;
15216;SDS011;7711;46.634;14.318;2022-07-03T07:58:43;8.05;;;4.18;;
15216;SDS011;7711;46.634;14.318;2022-07-03T08:01:10;3.85;;;3.45;;
15216;SDS011;7711;46.634;14.318;2022-07-03T08:03:56;4.20;;;3.80;;
15216;SDS011;7711;46.634;14.318;2022-07-03T08:06:40;4.28;;;3.88;;
15216;SDS011;7711;46.634;14.318;2022-07-03T08:09:09;4.97;;;3.60;;
15216;SDS011;7711;46.634;14.318;2022-07-03T08:11:38;4.10;;;3.67;;
15216;SDS011;7711;46.634;14.318;2022-07-03T08:14:08;4.32;;;3.55;;
15216;SDS011;7711;46.634;14.318;2022-07-03T08:16:35;4.07;;;3.75;;
15216;SDS011;7711;46.634;14.318;2022-07-03T08:19:06;4.95;;;3.47;;
15216;SDS011;7711;46.634;14.318;2022-07-03T08:21:36;4.43;;;3.88;;
15216;SDS011;7711;46.634;14.318;2022-07-03T08:24:03;4.20;;;3.40;;
15216;SDS011;7711;46.634;14.318;2022-07-03T08:26:30;4.13;;;3.55;;
15216;SDS011;7711;46.634;14.318;2022-07-03T08:28:57;5.75;;;3.75;;
15216;SDS011;7711;46.634;14.318;2022-07-03T08:31:26;3.63;;;3.33;;
15216;SDS011;7711;46.634;14.318;2022-07-03T08:33:53;4.47;;;3.20;;
15216;SDS011;7711;46.634;14.318;2022-07-03T08:36:22;5.15;;;3.50;;
15216;SDS011;7711;46.634;14.318;2022-07-03T08:38:51;5.45;;;3.55;;
15216;SDS011;7711;46.634;14.318;2022-07-03T08:41:18;5.38;;;3.80;;
15216;SDS011;7711;46.634;14.318;2022-07-03T08:43:46;8.20;;;3.88;;
15216;SDS011;7711;46.634;14.318;2022-07-03T08:46:16;4.68;;;3.30;;
15216;SDS011;7711;46.634;14.318;2022-07-03T08:48:43;4.25;;;3.42;;
15216;SDS011;7711;46.634;14.318;2022-07-03T08:51:12;7.25;;;3.50;;
15216;SDS011;7711;46.634;14.318;2022-07-03T08:53:42;5.68;;;3.58;;
15216;SDS011;7711;46.634;14.318;2022-07-03T08:56:13;5.22;;;3.38;;
15216;SDS011;7711;46.634;14.318;2022-07-03T08:58:40;4.03;;;3.58;;
15216;SDS011;7711;46.634;14.318;2022-07-03T09:01:08;5.82;;;3.67;;
15216;SDS011;7711;46.634;14.318;2022-07-03T09:03:36;4.10;;;3.67;;
15216;SDS011;7711;46.634;14.318;2022-07-03T09:06:05;3.65;;;3.30;;
15216;SDS011;7711;46.634;14.318;2022-07-03T09:08:32;4.43;;;4.00;;
15216;SDS011;7711;46.634;14.318;2022-07-03T09:11:04;8.55;;;4.00;;
15216;SDS011;7711;46.634;14.318;2022-07-03T09:13:31;9.40;;;3.72;;
15216;SDS011;7711;46.634;14.318;2022-07-03T09:16:03;5.68;;;3.53;;
15216;SDS011;7711;46.634;14.318;2022-07-03T09:18:37;4.32;;;3.60;;
15216;SDS011;7711;46.634;14.318;2022-07-03T09:21:05;6.50;;;3.78;;
15216;SDS011;7711;46.634;14.318;2022-07-03T09:23:37;4.28;;;3.60;;
15216;SDS011;7711;46.634;14.318;2022-07-03T09:26:11;5.35;;;3.88;;
15216;SDS011;7711;46.634;14.318;2022-07-03T09:28:43;4.95;;;3.80;;
15216;SDS011;7711;46.634;14.318;2022-07-03T09:31:14;3.72;;;3.38;;
15216;SDS011;7711;46.634;14.318;2022-07-03T09:33:54;5.18;;;3.70;;
15216;SDS011;7711;46.634;14.318;2022-07-03T09:36:36;7.25;;;3.83;;
15216;SDS011;7711;46.634;14.318;2022-07-03T09:39:19;3.55;;;3.25;;
15216;SDS011;7711;46.634;14.318;2022-07-03T09:41:53;4.57;;;4.18;;
15216;SDS011;7711;46.634;14.318;2022-07-03T09:44:34;4.47;;;3.60;;
15216;SDS011;7711;46.634;14.318;2022-07-03T09:47:12;5.38;;;4.30;;
15216;SDS011;7711;46.634;14.318;2022-07-03T09:49:44;4.45;;;3.97;;
15216;SDS011;7711;46.634;14.318;2022-07-03T09:52:30;5.25;;;3.72;;
15216;SDS011;7711;46.634;14.318;2022-07-03T09:55:10;5.45;;;4.43;;
15216;SDS011;7711;46.634;14.318;2022-07-03T09:57:43;5.43;;;4.07;;
15216;SDS011;7711;46.634;14.318;2022-07-03T10:00:14;8.57;;;4.18;;
15216;SDS011;7711;46.634;14.318;2022-07-03T10:02:58;4.22;;;3.83;;
15216;SDS011;7711;46.634;14.318;2022-07-03T10:05:29;7.03;;;3.90;;
15216;SDS011;7711;46.634;14.318;2022-07-03T10:07:58;5.57;;;4.30;;
15216;SDS011;7711;46.634;14.318;2022-07-03T10:10:27;4.95;;;3.70;;
15216;SDS011;7711;46.634;14.318;2022-07-03T10:12:58;6.78;;;3.70;;
15216;SDS011;7711;46.634;14.318;2022-07-03T10:15:26;4.47;;;3.90;;
15216;SDS011;7711;46.634;14.318;2022-07-03T10:17:55;6.53;;;3.80;;
15216;SDS011;7711;46.634;14.318;2022-07-03T10:20:24;4.05;;;3.65;;
15216;SDS011;7711;46.634;14.318;2022-07-03T10:22:53;4.00;;;3.55;;
15216;SDS011;7711;46.634;14.318;2022-07-03T10:25:21;8.65;;;3.83;;
15216;SDS011;7711;46.634;14.318;2022-07-03T10:27:50;4.68;;;3.60;;
15216;SDS011;7711;46.634;14.318;2022-07-03T10:30:20;6.13;;;3.83;;
15216;SDS011;7711;46.634;14.318;2022-07-03T10:32:48;4.55;;;3.65;;
15216;SDS011;7711;46.634;14.318;2022-07-03T10:35:17;4.47;;;4.03;;
15216;SDS011;7711;46.634;14.318;2022-07-03T10:38:01;4.35;;;3.80;;
15216;SDS011;7711;46.634;14.318;2022-07-03T10:40:40;3.53;;;3.15;;
15216;SDS011;7711;46.634;14.318;2022-07-03T10:43:33;4.80;;;3.80;;
15216;SDS011;7711;46.634;14.318;2022-07-03T10:46:25;4.32;;;3.33;;
15216;SDS011;7711;46.634;14.318;2022-07-03T10:49:00;4.82;;;3.33;;
15216;SDS011;7711;46.634;14.318;2022-07-03T10:51:30;5.15;;;3.30;;
15216;SDS011;7711;46.634;14.318;2022-07-03T10:54:17;4.60;;;3.58;;
15216;SDS011;7711;46.634;14.318;2022-07-03T11:02:43;4.93;;;3.72;;
15216;SDS011;7711;46.634;14.318;2022-07-03T11:05:15;5.18;;;3.60;;
15216;SDS011;7711;46.634;14.318;2022-07-03T11:08:05;7.03;;;3.50;;
15216;SDS011;7711;46.634;14.318;2022-07-03T11:10:41;9.07;;;4.10;;
15216;SDS011;7711;46.634;14.318;2022-07-03T11:13:11;7.00;;;3.60;;
15216;SDS011;7711;46.634;14.318;2022-07-03T11:15:42;3.83;;;3.45;;
15216;SDS011;7711;46.634;14.318;2022-07-03T11:18:16;4.90;;;3.60;;
15216;SDS011;7711;46.634;14.318;2022-07-03T11:24:18;4.88;;;3.13;;
15216;SDS011;7711;46.634;14.318;2022-07-03T11:27:22;3.88;;;3.55;;
15216;SDS011;7711;46.634;14.318;2022-07-03T11:29:57;5.00;;;3.08;;
15216;SDS011;7711;46.634;14.318;2022-07-03T11:38:22;4.70;;;3.33;;
15216;SDS011;7711;46.634;14.318;2022-07-03T11:40:58;5.28;;;3.80;;
15216;SDS011;7711;46.634;14.318;2022-07-03T11:43:28;3.75;;;3.45;;
15216;SDS011;7711;46.634;14.318;2022-07-03T11:45:56;3.85;;;3.42;;
15216;SDS011;7711;46.634;14.318;2022-07-03T11:48:24;3.80;;;3.40;;
15216;SDS011;7711;46.634;14.318;2022-07-03T11:51:00;5.22;;;3.17;;
15216;SDS011;7711;46.634;14.318;2022-07-03T11:53:32;3.50;;;3.20;;
15216;SDS011;7711;46.634;14.318;2022-07-03T11:56:01;5.80;;;3.58;;
15216;SDS011;7711;46.634;14.318;2022-07-03T11:58:41;3.55;;;3.22;;
15216;SDS011;7711;46.634;14.318;2022-07-03T12:04:02;5.25;;;3.20;;
15216;SDS011;7711;46.634;14.318;2022-07-03T12:06:36;4.18;;;3.25;;
15216;SDS011;7711;46.634;14.318;2022-07-03T12:09:14;5.05;;;3.40;;
15216;SDS011;7711;46.634;14.318;2022-07-03T12:11:51;3.30;;;3.00;;
15216;SDS011;7711;46.634;14.318;2022-07-03T12:14:38;3.40;;;3.00;;
15216;SDS011;7711;46.634;14.318;2022-07-03T12:17:11;3.40;;;3.10;;
15216;SDS011;7711;46.634;14.318;2022-07-03T12:19:44;5.90;;;3.60;;
15216;SDS011;7711;46.634;14.318;2022-07-03T12:22:14;7.38;;;3.13;;
15216;SDS011;7711;46.634;14.318;2022-07-03T12:24:59;4.20;;;2.95;;
15216;SDS011;7711;46.634;14.318;2022-07-03T12:27:31;5.20;;;3.40;;
15216;SDS011;7711;46.634;14.318;2022-07-03T12:30:00;4.03;;;2.88;;
15216;SDS011;7711;46.634;14.318;2022-07-03T12:32:28;5.25;;;3.30;;
15216;SDS011;7711;46.634;14.318;2022-07-03T12:34:56;4.28;;;3.25;;
15216;SDS011;7711;46.634;14.318;2022-07-03T12:37:32;3.70;;;3.00;;
15216;SDS011;7711;46.634;14.318;2022-07-03T12:40:06;3.55;;;3.22;;
15216;SDS011;7711;46.634;14.318;2022-07-03T12:42:42;5.43;;;3.25;;
15216;SDS011;7711;46.634;14.318;2022-07-03T12:45:11;3.55;;;2.83;;
15216;SDS011;7711;46.634;14.318;2022-07-03T12:47:42;3.42;;;3.10;;
15216;SDS011;7711;46.634;14.318;2022-07-03T12:50:10;3.40;;;3.00;;
15216;SDS011;7711;46.634;14.318;2022-07-03T12:52:50;3.72;;;3.15;;
15216;SDS011;7711;46.634;14.318;2022-07-03T12:55:25;5.90;;;3.10;;
15216;SDS011;7711;46.634;14.318;2022-07-03T12:58:10;3.60;;;3.17;;
15216;SDS011;7711;46.634;14.318;2022-07-03T13:00:57;5.88;;;3.33;;
15216;SDS011;7711;46.634;14.318;2022-07-03T13:03:28;3.88;;;3.08;;
15216;SDS011;7711;46.634;14.318;2022-07-03T13:05:56;3.83;;;3.10;;
15216;SDS011;7711;46.634;14.318;2022-07-03T13:08:28;3.60;;;3.30;;
15216;SDS011;7711;46.634;14.318;2022-07-03T13:10:58;3.78;;;2.80;;
15216;SDS011;7711;46.634;14.318;2022-07-03T13:13:27;9.93;;;3.50;;
15216;SDS011;7711;46.634;14.318;2022-07-03T13:16:23;3.58;;;3.00;;
15216;SDS011;7711;46.634;14.318;2022-07-03T13:18:56;5.22;;;3.00;;
15216;SDS011;7711;46.634;14.318;2022-07-03T13:21:24;6.30;;;2.92;;
15216;SDS011;7711;46.634;14.318;2022-07-03T13:23:52;3.30;;;2.80;;
15216;SDS011;7711;46.634;14.318;2022-07-03T13:26:20;3.15;;;2.85;;
15216;SDS011;7711;46.634;14.318;2022-07-03T13:28:47;4.70;;;2.97;;
15216;SDS011;7711;46.634;14.318;2022-07-03T13:31:14;4.20;;;3.13;;
15216;SDS011;7711;46.634;14.318;2022-07-03T13:33:41;3.20;;;2.90;;
15216;SDS011;7711;46.634;14.318;2022-07-03T13:36:10;3.95;;;2.70;;
15216;SDS011;7711;46.634;14.318;2022-07-03T13:38:37;4.13;;;2.40;;
15216;SDS011;7711;46.634;14.318;2022-07-03T13:41:06;3.78;;;2.90;;
15216;SDS011;7711;46.634;14.318;2022-07-03T13:43:33;2.97;;;2.78;;
15216;SDS011;7711;46.634;14.318;2022-07-03T13:46:00;3.15;;;2.85;;
15216;SDS011;7711;46.634;14.318;2022-07-03T13:48:28;4.47;;;2.70;;
15216;SDS011;7711;46.634;14.318;2022-07-03T13:50:56;3.10;;;2.80;;
15216;SDS011;7711;46.634;14.318;2022-07-03T13:53:23;3.72;;;2.72;;
15216;SDS011;7711;46.634;14.318;2022-07-03T13:55:50;3.13;;;2.63;;
15216;SDS011;7711;46.634;14.318;2022-07-03T13:58:21;4.10;;;2.67;;
15216;SDS011;7711;46.634;14.318;2022-07-03T14:00:49;2.75;;;2.55;;
15216;SDS011;7711;46.634;14.318;2022-07-03T14:03:16;4.88;;;2.90;;
15216;SDS011;7711;46.634;14.318;2022-07-03T14:05:43;3.95;;;2.80;;
15216;SDS011;7711;46.634;14.318;2022-07-03T14:08:11;8.38;;;2.90;;
15216;SDS011;7711;46.634;14.318;2022-07-03T14:10:38;4.05;;;2.80;;
15216;SDS011;7711;46.634;14.318;2022-07-03T14:13:05;2.95;;;2.70;;
15216;SDS011;7711;46.634;14.318;2022-07-03T14:15:34;2.92;;;2.72;;
15216;SDS011;7711;46.634;14.318;2022-07-03T14:18:01;3.63;;;2.63;;
15216;SDS011;7711;46.634;14.318;2022-07-03T14:20:28;3.17;;;2.88;;
15216;SDS011;7711;46.634;14.318;2022-07-03T14:22:58;2.80;;;2.60;;
15216;SDS011;7711;46.634;14.318;2022-07-03T14:25:25;3.80;;;2.70;;
15216;SDS011;7711;46.634;14.318;2022-07-03T14:27:52;3.78;;;2.70;;
15216;SDS011;7711;46.634;14.318;2022-07-03T14:30:39;3.80;;;2.70;;
15216;SDS011;7711;46.634;14.318;2022-07-03T14:33:23;2.88;;;2.67;;
15216;SDS011;7711;46.634;14.318;2022-07-03T14:35:50;5.30;;;2.42;;
15216;SDS011;7711;46.634;14.318;2022-07-03T14:38:18;3.00;;;2.70;;
15216;SDS011;7711;46.634;14.318;2022-07-03T14:40:46;3.50;;;2.90;;
15216;SDS011;7711;46.634;14.318;2022-07-03T14:43:13;3.30;;;2.90;;
15216;SDS011;7711;46.634;14.318;2022-07-03T14:45:42;2.90;;;2.60;;
15216;SDS011;7711;46.634;14.318;2022-07-03T14:48:09;3.35;;;2.92;;
15216;SDS011;7711;46.634;14.318;2022-07-03T14:50:36;3.63;;;2.67;;
15216;SDS011;7711;46.634;14.318;2022-07-03T14:53:05;5.65;;;2.90;;
15216;SDS011;7711;46.634;14.318;2022-07-03T14:55:36;4.13;;;2.90;;
15216;SDS011;7711;46.634;14.318;2022-07-03T14:58:08;2.90;;;2.70;;
15216;SDS011;7711;46.634;14.318;2022-07-03T15:00:45;6.00;;;2.83;;
15216;SDS011;7711;46.634;14.318;2022-07-03T15:03:15;4.95;;;3.00;;
15216;SDS011;7711;46.634;14.318;2022-07-03T15:05:45;3.70;;;2.80;;
15216;SDS011;7711;46.634;14.318;2022-07-03T15:08:26;3.45;;;3.15;;
15216;SDS011;7711;46.634;14.318;2022-07-03T15:11:12;3.00;;;2.70;;
15216;SDS011;7711;46.634;14.318;2022-07-03T15:14:02;4.05;;;2.70;;
15216;SDS011;7711;46.634;14.318;2022-07-03T15:16:33;2.70;;;2.50;;
15216;SDS011;7711;46.634;14.318;2022-07-03T15:19:01;2.80;;;2.60;;
15216;SDS011;7711;46.634;14.318;2022-07-03T15:21:29;3.00;;;2.70;;
15216;SDS011;7711;46.634;14.318;2022-07-03T15:23:58;3.20;;;2.55;;
15216;SDS011;7711;46.634;14.318;2022-07-03T15:26:28;4.10;;;2.95;;
15216;SDS011;7711;46.634;14.318;2022-07-03T15:28:59;5.95;;;2.90;;